Flight Track Log - Related Links

Times and Time Zones

All times are in EDT time to prevent confusion due to time zone crossing. See the N917DE flight status page for this flight to view local times or setup timezone preferences in your user account.

Time Position Orientation Groundspeed Altitude Reporting Facility
EDT Latitude Longitude Course Direction KTS MPH feet Rate Location/Type
Sun 08:57:52 PM 33.6353 -84.3408 88° East 449 517 3,700  Level Atlanta Center
Sun 09:02:52 PM 33.6500 -83.8192 86° East 374 430 27,000 2,267 Climbing Atlanta Center
Sun 09:03:52 PM 33.6581 -83.6819 66° East 396 456 17,300 -1,000 Descending Atlanta Center
Sun 09:06:52 PM 33.8044 -83.2864 65° Northeast 434 499 23,000 2,000 Climbing Atlanta Center
Sun 09:07:52 PM 33.8578 -83.1483 63° Northeast 439 505 25,300 2,000 Climbing Atlanta Center
Sun 09:08:52 PM 33.9131 -83.0175 65° Northeast 439 505 27,000 850 Climbing Atlanta Center
Sun 09:09:52 PM 33.9622 -82.8892 64° Northeast 427 491 27,000  Level Atlanta Center
Sun 09:10:52 PM 34.0150 -82.7556 64° Northeast 427 491 27,000  Level Atlanta Center
Sun 09:11:52 PM 34.0719 -82.6144 65° Northeast 427 491 27,000  Level Atlanta Center
Sun 09:12:52 PM 34.1125 -82.5083 65° Northeast 427 491 27,000 -950 Level Atlanta Center
Sun 09:13:52 PM 34.1689 -82.3642 65° Northeast 427 491 25,100 -1,500 Descending Atlanta Center
Sun 09:14:52 PM 34.2192 -82.2325 59° Northeast 427 491 24,000 -750 Descending Atlanta Center
Sun 09:15:52 PM 34.2800 -82.1106 45° Northeast 421 484 23,600 -1,000 Descending Atlanta Center
Sun 09:16:52 PM 34.3619 -82.0106 46° Northeast 421 484 22,000 -2,000 Descending Atlanta Center
Sun 09:17:52 PM 34.4394 -81.9131 46° Northeast 410 472 19,600 -2,300 Descending Atlanta Center
Sun 09:18:52 PM 34.5131 -81.8203 46° Northeast 392 451 17,400 -2,450 Descending Atlanta Center
Sun 09:19:52 PM 34.5947 -81.7172 46° Northeast 383 441 14,700 -2,400 Descending Atlanta Center
Sun 09:20:52 PM 34.6639 -81.6294 46° Northeast 373 429 12,600 -1,300 Descending Atlanta Center
Sun 09:21:52 PM 34.7269 -81.5494 44° Northeast 352 405 12,100 -333 Descending Atlanta Center
Sun 09:22:40 PM 34.7717 -81.4975 46° Northeast 296 341 12,000 -58 Descending Atlanta Center
Sun 09:23:35 PM 34.8247 -81.4300 46° Northeast 293 337 12,000  Level Atlanta Center
Sun 09:24:36 PM 34.8794 -81.3600 49° Northeast 292 336 12,000 -496 Level Atlanta Center
Sun 09:25:36 PM 34.9381 -81.2769 45° Northeast 291 335 11,000 -1,190 Descending Atlanta Center
Sun 09:26:37 PM 34.9908 -81.2119 46° Northeast 279 321 9,600 -934 Descending Atlanta Center
Sun 09:27:38 PM 35.0436 -81.1442 47° Northeast 275 316 9,100 -340 Descending Atlanta Center
Sun 09:28:23 PM 35.0806 -81.0950 32° Northeast 273 314 9,000 -71 Descending FAA TRACON SMA TRACON (SMA)
Sun 09:29:03 PM 35.1239 -81.0614 355° North 279 321 9,000 -304 Level FAA TRACON SMA TRACON (SMA)
Sun 09:29:42 PM 35.1714 -81.0664 357° North 273 314 8,600 -1,139 Descending FAA TRACON SMA TRACON (SMA)
Sun 09:30:22 PM 35.2256 -81.0703 357° North 278 320 7,500 -1,725 Descending FAA TRACON SMA TRACON (SMA)
Sun 09:31:02 PM 35.2786 -81.0742 357° North 274 315 6,300 -1,481 Descending FAA TRACON SMA TRACON (SMA)
Sun 09:31:43 PM 35.3242 -81.0772 35° Northeast 264 304 5,500 -1,037 Descending FAA TRACON SMA TRACON (SMA)
Sun 09:32:23 PM 35.3564 -81.0492 85° East 229 264 4,900 -1,425 Descending FAA TRACON SMA TRACON (SMA)
Sun 09:33:03 PM 35.3603 -80.9994 128° Southeast 215 247 3,600 -1,443 Descending FAA TRACON SMA TRACON (SMA)
Sun 09:33:42 PM 35.3397 -80.9672 171° South 205 236 3,000 -1,063 Descending FAA TRACON SMA TRACON (SMA)
Sun 09:34:22 PM 35.3042 -80.9600 176° South 193 222 2,200 -1,050 Descending FAA TRACON SMA TRACON (SMA)
Sun 09:35:02 PM 35.2731 -80.9572 176° South 163 188 1,600 -741 Descending FAA TRACON SMA TRACON (SMA)
Sun 09:35:43 PM 35.2478 -80.9550 176° South 150 173 1,200 -593 Descending FAA TRACON SMA TRACON (SMA)
Sun 09:36:23 PM 35.2283 -80.9533 176° South 150 173 800 -600 Descending FAA TRACON SMA TRACON (SMA)

Login

Don't have an account? Register now (free) for customized features, flight alerts, and more!